sensor_id;sensor_type;location;lat;lon;timestamp;pressure;altitude;pressure_sealevel;temperature;humidity
56681;BME280;42558;52.388;13.390;2023-01-30T00:01:05;100938.20;;;-0.00;97.08
56681;BME280;42558;52.388;13.390;2023-01-30T00:03:36;100937.87;;;-0.00;96.61
56681;BME280;42558;52.388;13.390;2023-01-30T00:06:06;100934.66;;;-0.02;96.76
56681;BME280;42558;52.388;13.390;2023-01-30T00:08:36;100931.06;;;-0.01;96.40
56681;BME280;42558;52.388;13.390;2023-01-30T00:11:09;100923.58;;;-0.03;96.55
56681;BME280;42558;52.388;13.390;2023-01-30T00:13:41;100913.73;;;-0.02;96.48
56681;BME280;42558;52.388;13.390;2023-01-30T00:16:11;100900.70;;;-0.04;96.34
56681;BME280;42558;52.388;13.390;2023-01-30T00:18:42;100893.88;;;-0.05;95.93
56681;BME280;42558;52.388;13.390;2023-01-30T00:21:14;100891.77;;;-0.06;96.32
56681;BME280;42558;52.388;13.390;2023-01-30T00:23:44;100885.40;;;-0.08;96.63
56681;BME280;42558;52.388;13.390;2023-01-30T00:26:14;100875.67;;;-0.09;96.01
56681;BME280;42558;52.388;13.390;2023-01-30T00:28:44;100869.74;;;-0.10;96.36
56681;BME280;42558;52.388;13.390;2023-01-30T00:31:14;100869.02;;;-0.10;96.22
56681;BME280;42558;52.388;13.390;2023-01-30T00:33:43;100858.47;;;-0.11;96.43
56681;BME280;42558;52.388;13.390;2023-01-30T00:36:13;100846.16;;;-0.11;96.03
56681;BME280;42558;52.388;13.390;2023-01-30T00:38:43;100835.95;;;-0.12;96.63
56681;BME280;42558;52.388;13.390;2023-01-30T00:41:13;100821.25;;;-0.12;96.26
56681;BME280;42558;52.388;13.390;2023-01-30T00:43:43;100811.44;;;-0.11;96.25
56681;BME280;42558;52.388;13.390;2023-01-30T00:46:33;100795.70;;;-0.08;95.71
56681;BME280;42558;52.388;13.390;2023-01-30T00:49:22;100775.67;;;-0.08;96.08
56681;BME280;42558;52.388;13.390;2023-01-30T00:51:52;100774.98;;;-0.08;96.03
56681;BME280;42558;52.388;13.390;2023-01-30T00:54:22;100764.30;;;-0.11;96.21
56681;BME280;42558;52.388;13.390;2023-01-30T00:56:51;100742.60;;;-0.13;96.52
56681;BME280;42558;52.388;13.390;2023-01-30T00:59:21;100717.44;;;-0.14;96.39
56681;BME280;42558;52.388;13.390;2023-01-30T01:01:51;100719.19;;;-0.14;95.90
56681;BME280;42558;52.388;13.390;2023-01-30T01:04:21;100727.83;;;-0.14;96.25
56681;BME280;42558;52.388;13.390;2023-01-30T01:06:51;100712.34;;;-0.16;96.33
56681;BME280;42558;52.388;13.390;2023-01-30T01:09:20;100709.84;;;-0.18;96.57
56681;BME280;42558;52.388;13.390;2023-01-30T01:11:49;100714.91;;;-0.16;96.23
56681;BME280;42558;52.388;13.390;2023-01-30T01:14:17;100710.98;;;-0.15;96.56
56681;BME280;42558;52.388;13.390;2023-01-30T01:16:46;100711.51;;;-0.15;96.85
56681;BME280;42558;52.388;13.390;2023-01-30T01:19:14;100709.84;;;-0.14;96.04
56681;BME280;42558;52.388;13.390;2023-01-30T01:21:43;100709.77;;;-0.13;96.54
56681;BME280;42558;52.388;13.390;2023-01-30T01:24:14;100695.75;;;-0.13;96.44
56681;BME280;42558;52.388;13.390;2023-01-30T01:26:43;100672.73;;;-0.10;96.20
56681;BME280;42558;52.388;13.390;2023-01-30T01:29:13;100654.80;;;-0.10;96.33
56681;BME280;42558;52.388;13.390;2023-01-30T01:31:44;100640.03;;;-0.08;96.01
56681;BME280;42558;52.388;13.390;2023-01-30T01:34:15;100642.71;;;-0.07;96.14
56681;BME280;42558;52.388;13.390;2023-01-30T01:36:48;100646.66;;;-0.07;96.61
56681;BME280;42558;52.388;13.390;2023-01-30T01:39:23;100648.20;;;-0.04;95.67
56681;BME280;42558;52.388;13.390;2023-01-30T01:41:52;100647.83;;;-0.05;95.67
56681;BME280;42558;52.388;13.390;2023-01-30T01:44:23;100650.36;;;-0.06;95.55
56681;BME280;42558;52.388;13.390;2023-01-30T01:46:58;100653.54;;;-0.05;95.33
56681;BME280;42558;52.388;13.390;2023-01-30T01:49:34;100659.76;;;-0.05;95.62
56681;BME280;42558;52.388;13.390;2023-01-30T01:52:14;100669.45;;;-0.04;95.20
56681;BME280;42558;52.388;13.390;2023-01-30T01:54:52;100664.87;;;-0.06;95.87
56681;BME280;42558;52.388;13.390;2023-01-30T01:57:35;100662.27;;;-0.06;95.92
56681;BME280;42558;52.388;13.390;2023-01-30T02:00:19;100663.14;;;-0.06;95.90
56681;BME280;42558;52.388;13.390;2023-01-30T02:03:04;100647.83;;;-0.05;95.75
56681;BME280;42558;52.388;13.390;2023-01-30T02:05:42;100637.09;;;-0.05;95.99
56681;BME280;42558;52.388;13.390;2023-01-30T02:08:20;100621.49;;;-0.06;96.38
56681;BME280;42558;52.388;13.390;2023-01-30T02:11:20;100609.45;;;-0.08;97.08
56681;BME280;42558;52.388;13.390;2023-01-30T02:13:50;100595.91;;;-0.09;97.31
56681;BME280;42558;52.388;13.390;2023-01-30T02:16:19;100580.04;;;-0.09;97.77
56681;BME280;42558;52.388;13.390;2023-01-30T02:18:48;100576.27;;;-0.11;97.76
56681;BME280;42558;52.388;13.390;2023-01-30T02:31:49;100528.52;;;-0.29;100.00
56681;BME280;42558;52.388;13.390;2023-01-30T02:43:21;100523.77;;;-0.14;100.00
56681;BME280;42558;52.388;13.390;2023-01-30T02:46:23;100530.27;;;-0.13;100.00
56681;BME280;42558;52.388;13.390;2023-01-30T02:49:31;100520.23;;;-0.09;99.96
56681;BME280;42558;52.388;13.390;2023-01-30T02:52:07;100510.07;;;-0.09;100.00
56681;BME280;42558;52.388;13.390;2023-01-30T02:54:37;100506.91;;;-0.10;100.00
56681;BME280;42558;52.388;13.390;2023-01-30T02:57:21;100496.92;;;-0.15;100.00
56681;BME280;42558;52.388;13.390;2023-01-30T02:59:57;100491.52;;;-0.20;100.00
56681;BME280;42558;52.388;13.390;2023-01-30T03:09:24;100453.85;;;-0.34;100.00
56681;BME280;42558;52.388;13.390;2023-01-30T03:15:27;100438.94;;;-0.35;100.00
56681;BME280;42558;52.388;13.390;2023-01-30T03:17:58;100436.66;;;-0.35;100.00
56681;BME280;42558;52.388;13.390;2023-01-30T03:20:26;100436.84;;;-0.33;100.00
56681;BME280;42558;52.388;13.390;2023-01-30T03:22:54;100429.48;;;-0.31;100.00
56681;BME280;42558;52.388;13.390;2023-01-30T03:25:24;100425.38;;;-0.30;100.00
56681;BME280;42558;52.388;13.390;2023-01-30T03:27:56;100415.65;;;-0.27;100.00
56681;BME280;42558;52.388;13.390;2023-01-30T03:30:26;100402.89;;;-0.23;100.00
56681;BME280;42558;52.388;13.390;2023-01-30T03:32:56;100403.55;;;-0.20;100.00
56681;BME280;42558;52.388;13.390;2023-01-30T03:35:26;100405.52;;;-0.16;100.00
56681;BME280;42558;52.388;13.390;2023-01-30T03:37:54;100398.15;;;-0.15;100.00
56681;BME280;42558;52.388;13.390;2023-01-30T03:40:23;100410.16;;;-0.13;100.00
56681;BME280;42558;52.388;13.390;2023-01-30T03:42:51;100402.71;;;-0.10;100.00
56681;BME280;42558;52.388;13.390;2023-01-30T03:45:21;100400.23;;;-0.08;100.00
56681;BME280;42558;52.388;13.390;2023-01-30T03:47:49;100390.73;;;-0.04;100.00
56681;BME280;42558;52.388;13.390;2023-01-30T03:50:18;100387.55;;;-0.02;100.00
56681;BME280;42558;52.388;13.390;2023-01-30T03:52:46;100383.45;;;0.02;100.00
56681;BME280;42558;52.388;13.390;2023-01-30T03:55:15;100376.91;;;0.06;100.00
56681;BME280;42558;52.388;13.390;2023-01-30T03:57:43;100374.31;;;0.09;100.00
56681;BME280;42558;52.388;13.390;2023-01-30T04:00:12;100363.64;;;0.14;100.00
56681;BME280;42558;52.388;13.390;2023-01-30T04:02:40;100357.02;;;0.16;100.00
56681;BME280;42558;52.388;13.390;2023-01-30T04:05:08;100357.97;;;0.14;100.00
56681;BME280;42558;52.388;13.390;2023-01-30T04:07:37;100347.58;;;0.11;100.00
56681;BME280;42558;52.388;13.390;2023-01-30T04:10:06;100344.64;;;0.10;100.00
56681;BME280;42558;52.388;13.390;2023-01-30T04:12:34;100331.85;;;0.11;100.00
56681;BME280;42558;52.388;13.390;2023-01-30T04:15:04;100321.96;;;0.13;100.00
56681;BME280;42558;52.388;13.390;2023-01-30T04:17:32;100325.88;;;0.19;100.00
56681;BME280;42558;52.388;13.390;2023-01-30T04:20:01;100322.94;;;0.22;100.00
56681;BME280;42558;52.388;13.390;2023-01-30T04:22:29;100319.71;;;0.24;100.00
56681;BME280;42558;52.388;13.390;2023-01-30T04:24:57;100319.35;;;0.28;100.00
56681;BME280;42558;52.388;13.390;2023-01-30T04:27:26;100326.07;;;0.35;100.00
56681;BME280;42558;52.388;13.390;2023-01-30T04:29:54;100315.98;;;0.37;100.00
56681;BME280;42558;52.388;13.390;2023-01-30T04:32:25;100304.28;;;0.42;100.00
56681;BME280;42558;52.388;13.390;2023-01-30T04:34:54;100307.23;;;0.42;100.00
56681;BME280;42558;52.388;13.390;2023-01-30T04:37:23;100302.02;;;0.45;100.00
56681;BME280;42558;52.388;13.390;2023-01-30T04:39:51;100303.05;;;0.52;100.00
56681;BME280;42558;52.388;13.390;2023-01-30T04:42:20;100300.80;;;0.53;100.00
56681;BME280;42558;52.388;13.390;2023-01-30T04:44:48;100295.09;;;0.56;100.00
56681;BME280;42558;52.388;13.390;2023-01-30T04:47:17;100298.63;;;0.62;100.00
56681;BME280;42558;52.388;13.390;2023-01-30T04:49:45;100302.40;;;0.65;100.00
56681;BME280;42558;52.388;13.390;2023-01-30T04:52:14;100293.94;;;0.65;100.00
56681;BME280;42558;52.388;13.390;2023-01-30T04:54:42;100283.59;;;0.69;100.00
56681;BME280;42558;52.388;13.390;2023-01-30T04:57:10;100279.71;;;0.71;100.00
56681;BME280;42558;52.388;13.390;2023-01-30T04:59:39;100275.16;;;0.70;100.00
56681;BME280;42558;52.388;13.390;2023-01-30T05:02:07;100270.84;;;0.74;100.00
56681;BME280;42558;52.388;13.390;2023-01-30T05:04:36;100267.13;;;0.76;100.00
56681;BME280;42558;52.388;13.390;2023-01-30T05:07:04;100266.09;;;0.76;100.00
56681;BME280;42558;52.388;13.390;2023-01-30T05:09:32;100258.42;;;0.67;100.00
56681;BME280;42558;52.388;13.390;2023-01-30T05:12:01;100250.15;;;0.65;100.00
56681;BME280;42558;52.388;13.390;2023-01-30T05:14:29;100247.71;;;0.56;100.00
56681;BME280;42558;52.388;13.390;2023-01-30T05:16:58;100241.65;;;0.52;100.00
56681;BME280;42558;52.388;13.390;2023-01-30T05:19:28;100237.44;;;0.47;100.00
56681;BME280;42558;52.388;13.390;2023-01-30T05:21:56;100231.39;;;0.43;100.00
56681;BME280;42558;52.388;13.390;2023-01-30T05:24:25;100227.64;;;0.41;100.00
56681;BME280;42558;52.388;13.390;2023-01-30T05:26:55;100226.45;;;0.37;100.00
56681;BME280;42558;52.388;13.390;2023-01-30T05:29:22;100225.59;;;0.34;100.00
56681;BME280;42558;52.388;13.390;2023-01-30T05:31:49;100228.61;;;0.28;100.00
56681;BME280;42558;52.388;13.390;2023-01-30T05:34:19;100225.46;;;0.23;100.00
56681;BME280;42558;52.388;13.390;2023-01-30T05:36:49;100224.20;;;0.18;100.00
56681;BME280;42558;52.388;13.390;2023-01-30T05:39:19;100216.13;;;0.12;100.00
56681;BME280;42558;52.388;13.390;2023-01-30T05:41:49;100212.45;;;0.11;100.00
56681;BME280;42558;52.388;13.390;2023-01-30T05:44:18;100205.51;;;0.10;100.00
56681;BME280;42558;52.388;13.390;2023-01-30T05:46:49;100196.81;;;0.09;100.00
56681;BME280;42558;52.388;13.390;2023-01-30T05:49:18;100193.71;;;0.09;100.00
56681;BME280;42558;52.388;13.390;2023-01-30T05:51:49;100191.65;;;0.10;100.00
56681;BME280;42558;52.388;13.390;2023-01-30T05:54:19;100189.81;;;0.11;100.00
56681;BME280;42558;52.388;13.390;2023-01-30T05:56:49;100187.92;;;0.15;100.00
56681;BME280;42558;52.388;13.390;2023-01-30T05:59:19;100180.08;;;0.17;100.00
56681;BME280;42558;52.388;13.390;2023-01-30T06:01:49;100169.79;;;0.19;100.00
56681;BME280;42558;52.388;13.390;2023-01-30T06:04:19;100162.05;;;0.20;100.00
56681;BME280;42558;52.388;13.390;2023-01-30T06:06:49;100165.80;;;0.19;100.00
56681;BME280;42558;52.388;13.390;2023-01-30T06:09:19;100161.02;;;0.20;100.00
56681;BME280;42558;52.388;13.390;2023-01-30T06:11:48;100155.95;;;0.22;100.00
56681;BME280;42558;52.388;13.390;2023-01-30T06:14:20;100155.38;;;0.25;100.00
56681;BME280;42558;52.388;13.390;2023-01-30T06:16:50;100153.77;;;0.28;100.00
56681;BME280;42558;52.388;13.390;2023-01-30T06:19:20;100148.88;;;0.31;100.00
56681;BME280;42558;52.388;13.390;2023-01-30T06:21:49;100154.08;;;0.35;100.00
56681;BME280;42558;52.388;13.390;2023-01-30T06:24:19;100152.46;;;0.38;100.00
56681;BME280;42558;52.388;13.390;2023-01-30T06:26:49;100145.00;;;0.41;100.00
56681;BME280;42558;52.388;13.390;2023-01-30T06:29:18;100140.15;;;0.45;100.00
56681;BME280;42558;52.388;13.390;2023-01-30T06:31:46;100135.11;;;0.48;100.00
56681;BME280;42558;52.388;13.390;2023-01-30T06:34:16;100146.94;;;0.54;100.00
56681;BME280;42558;52.388;13.390;2023-01-30T06:36:46;100147.61;;;0.57;100.00
56681;BME280;42558;52.388;13.390;2023-01-30T06:39:16;100150.60;;;0.58;100.00
56681;BME280;42558;52.388;13.390;2023-01-30T06:41:44;100155.33;;;0.60;100.00
56681;BME280;42558;52.388;13.390;2023-01-30T06:44:14;100156.16;;;0.63;100.00
56681;BME280;42558;52.388;13.390;2023-01-30T06:46:44;100156.39;;;0.64;100.00
56681;BME280;42558;52.388;13.390;2023-01-30T06:49:13;100160.58;;;0.65;100.00
56681;BME280;42558;52.388;13.390;2023-01-30T06:51:42;100159.33;;;0.68;100.00
56681;BME280;42558;52.388;13.390;2023-01-30T06:54:10;100159.73;;;0.69;100.00
56681;BME280;42558;52.388;13.390;2023-01-30T06:56:39;100159.23;;;0.69;100.00
56681;BME280;42558;52.388;13.390;2023-01-30T06:59:06;100155.61;;;0.70;100.00
56681;BME280;42558;52.388;13.390;2023-01-30T07:01:35;100157.03;;;0.71;100.00
56681;BME280;42558;52.388;13.390;2023-01-30T07:04:05;100152.23;;;0.76;100.00
56681;BME280;42558;52.388;13.390;2023-01-30T07:06:33;100147.98;;;0.77;100.00
56681;BME280;42558;52.388;13.390;2023-01-30T07:09:02;100135.44;;;0.79;100.00
56681;BME280;42558;52.388;13.390;2023-01-30T07:11:30;100127.92;;;0.86;100.00
56681;BME280;42558;52.388;13.390;2023-01-30T07:13:58;100124.64;;;0.90;100.00
56681;BME280;42558;52.388;13.390;2023-01-30T07:16:26;100122.75;;;0.91;100.00
56681;BME280;42558;52.388;13.390;2023-01-30T07:18:57;100118.53;;;0.89;100.00
56681;BME280;42558;52.388;13.390;2023-01-30T07:21:26;100119.43;;;0.90;100.00
56681;BME280;42558;52.388;13.390;2023-01-30T07:23:54;100116.92;;;0.92;100.00
56681;BME280;42558;52.388;13.390;2023-01-30T07:26:23;100112.77;;;0.96;100.00
56681;BME280;42558;52.388;13.390;2023-01-30T07:28:51;100111.93;;;0.97;100.00
56681;BME280;42558;52.388;13.390;2023-01-30T07:31:20;100110.00;;;1.00;100.00
56681;BME280;42558;52.388;13.390;2023-01-30T07:33:50;100106.27;;;1.02;100.00
56681;BME280;42558;52.388;13.390;2023-01-30T07:36:20;100106.36;;;1.05;100.00
56681;BME280;42558;52.388;13.390;2023-01-30T07:38:49;100107.79;;;1.09;100.00
56681;BME280;42558;52.388;13.390;2023-01-30T07:41:19;100115.38;;;1.14;100.00
56681;BME280;42558;52.388;13.390;2023-01-30T07:43:49;100111.02;;;1.17;100.00
56681;BME280;42558;52.388;13.390;2023-01-30T07:46:19;100111.65;;;1.24;100.00
56681;BME280;42558;52.388;13.390;2023-01-30T07:48:48;100113.45;;;1.25;100.00
56681;BME280;42558;52.388;13.390;2023-01-30T07:51:18;100113.70;;;1.27;100.00
56681;BME280;42558;52.388;13.390;2023-01-30T07:53:49;100113.12;;;1.30;100.00
56681;BME280;42558;52.388;13.390;2023-01-30T07:56:19;100119.77;;;1.32;100.00
56681;BME280;42558;52.388;13.390;2023-01-30T07:58:54;100119.17;;;1.34;100.00
56681;BME280;42558;52.388;13.390;2023-01-30T08:01:23;100126.34;;;1.36;100.00
56681;BME280;42558;52.388;13.390;2023-01-30T08:03:53;100129.88;;;1.39;100.00
56681;BME280;42558;52.388;13.390;2023-01-30T08:06:22;100129.66;;;1.41;100.00
56681;BME280;42558;52.388;13.390;2023-01-30T08:08:52;100128.02;;;1.44;100.00
56681;BME280;42558;52.388;13.390;2023-01-30T08:11:22;100129.40;;;1.48;100.00
56681;BME280;42558;52.388;13.390;2023-01-30T08:13:52;100124.13;;;1.50;100.00
56681;BME280;42558;52.388;13.390;2023-01-30T08:16:22;100125.84;;;1.54;100.00
56681;BME280;42558;52.388;13.390;2023-01-30T08:18:51;100123.00;;;1.61;100.00
56681;BME280;42558;52.388;13.390;2023-01-30T08:21:20;100125.64;;;1.67;100.00
56681;BME280;42558;52.388;13.390;2023-01-30T08:23:48;100124.77;;;1.71;100.00
56681;BME280;42558;52.388;13.390;2023-01-30T08:26:17;100121.55;;;1.73;100.00
56681;BME280;42558;52.388;13.390;2023-01-30T08:28:45;100122.40;;;1.77;100.00
56681;BME280;42558;52.388;13.390;2023-01-30T08:31:16;100126.75;;;1.82;100.00
56681;BME280;42558;52.388;13.390;2023-01-30T08:33:46;100126.62;;;1.87;100.00
56681;BME280;42558;52.388;13.390;2023-01-30T08:36:15;100120.70;;;1.92;100.00
56681;BME280;42558;52.388;13.390;2023-01-30T08:38:43;100112.75;;;1.97;100.00
56681;BME280;42558;52.388;13.390;2023-01-30T08:41:12;100103.98;;;2.00;100.00
56681;BME280;42558;52.388;13.390;2023-01-30T08:43:40;100107.55;;;2.02;100.00
56681;BME280;42558;52.388;13.390;2023-01-30T08:46:08;100106.61;;;2.04;100.00
56681;BME280;42558;52.388;13.390;2023-01-30T08:48:37;100103.53;;;2.06;100.00
56681;BME280;42558;52.388;13.390;2023-01-30T08:51:18;100102.29;;;2.09;100.00
56681;BME280;42558;52.388;13.390;2023-01-30T08:53:48;100102.35;;;2.15;100.00
56681;BME280;42558;52.388;13.390;2023-01-30T08:56:18;100099.52;;;2.24;100.00
56681;BME280;42558;52.388;13.390;2023-01-30T08:58:48;100097.34;;;2.30;100.00
56681;BME280;42558;52.388;13.390;2023-01-30T09:01:18;100098.91;;;2.36;100.00
56681;BME280;42558;52.388;13.390;2023-01-30T09:03:48;100099.85;;;2.42;100.00
56681;BME280;42558;52.388;13.390;2023-01-30T09:06:18;100101.17;;;2.51;100.00
56681;BME280;42558;52.388;13.390;2023-01-30T09:08:47;100097.36;;;2.61;100.00
56681;BME280;42558;52.388;13.390;2023-01-30T09:11:17;100097.00;;;2.70;100.00
56681;BME280;42558;52.388;13.390;2023-01-30T09:13:47;100096.73;;;2.88;100.00
56681;BME280;42558;52.388;13.390;2023-01-30T09:16:18;100104.45;;;3.12;100.00
56681;BME280;42558;52.388;13.390;2023-01-30T09:18:46;100106.06;;;3.29;100.00
56681;BME280;42558;52.388;13.390;2023-01-30T09:21:15;100103.29;;;3.40;100.00
56681;BME280;42558;52.388;13.390;2023-01-30T09:23:42;100104.42;;;3.48;100.00
56681;BME280;42558;52.388;13.390;2023-01-30T09:26:10;100098.04;;;3.49;100.00
56681;BME280;42558;52.388;13.390;2023-01-30T09:28:37;100096.88;;;3.58;100.00
56681;BME280;42558;52.388;13.390;2023-01-30T09:31:06;100103.39;;;3.60;100.00
56681;BME280;42558;52.388;13.390;2023-01-30T09:33:34;100108.76;;;3.65;100.00
56681;BME280;42558;52.388;13.390;2023-01-30T09:36:03;100114.88;;;3.72;100.00
56681;BME280;42558;52.388;13.390;2023-01-30T09:38:31;100115.29;;;3.85;100.00
56681;BME280;42558;52.388;13.390;2023-01-30T09:46:32;100125.69;;;3.90;100.00
56681;BME280;42558;52.388;13.390;2023-01-30T09:55:24;100111.89;;;4.00;100.00
56681;BME280;42558;52.388;13.390;2023-01-30T09:57:51;100108.71;;;4.03;100.00
56681;BME280;42558;52.388;13.390;2023-01-30T10:00:40;100114.95;;;4.09;100.00
56681;BME280;42558;52.388;13.390;2023-01-30T10:03:16;100111.50;;;4.16;100.00
56681;BME280;42558;52.388;13.390;2023-01-30T10:06:00;100111.93;;;4.26;100.00
56681;BME280;42558;52.388;13.390;2023-01-30T10:18:12;100117.33;;;4.26;100.00
56681;BME280;42558;52.388;13.390;2023-01-30T10:26:22;100116.10;;;4.31;99.64
56681;BME280;42558;52.388;13.390;2023-01-30T10:29:23;100112.07;;;4.96;96.50
56681;BME280;42558;52.388;13.390;2023-01-30T10:32:08;100109.24;;;5.65;90.46
56681;BME280;42558;52.388;13.390;2023-01-30T10:34:46;100099.95;;;6.37;88.11
56681;BME280;42558;52.388;13.390;2023-01-30T10:37:32;100093.73;;;6.68;84.43
56681;BME280;42558;52.388;13.390;2023-01-30T10:40:30;100086.48;;;8.34;76.50
56681;BME280;42558;52.388;13.390;2023-01-30T10:43:17;100088.29;;;7.27;77.57
56681;BME280;42558;52.388;13.390;2023-01-30T10:49:18;100095.98;;;5.42;88.97
56681;BME280;42558;52.388;13.390;2023-01-30T10:55:34;100089.16;;;5.12;89.98
56681;BME280;42558;52.388;13.390;2023-01-30T11:01:43;100091.73;;;4.96;90.04
56681;BME280;42558;52.388;13.390;2023-01-30T11:04:42;100084.27;;;4.98;89.55
56681;BME280;42558;52.388;13.390;2023-01-30T11:07:14;100079.00;;;4.96;90.77
56681;BME280;42558;52.388;13.390;2023-01-30T11:09:47;100084.68;;;4.93;90.67
56681;BME280;42558;52.388;13.390;2023-01-30T11:12:17;100080.09;;;4.84;90.62
56681;BME280;42558;52.388;13.390;2023-01-30T11:14:58;100079.94;;;4.84;91.36
56681;BME280;42558;52.388;13.390;2023-01-30T11:17:36;100080.73;;;4.82;91.89
56681;BME280;42558;52.388;13.390;2023-01-30T11:20:19;100077.54;;;4.80;92.30
56681;BME280;42558;52.388;13.390;2023-01-30T11:23:05;100067.01;;;4.77;92.31
56681;BME280;42558;52.388;13.390;2023-01-30T11:25:53;100069.45;;;4.76;92.66
56681;BME280;42558;52.388;13.390;2023-01-30T11:28:42;100065.27;;;4.76;93.03
56681;BME280;42558;52.388;13.390;2023-01-30T11:31:26;100059.71;;;4.76;93.29
56681;BME280;42558;52.388;13.390;2023-01-30T11:34:16;100049.23;;;4.82;93.48
56681;BME280;42558;52.388;13.390;2023-01-30T11:36:47;100037.95;;;4.90;92.79
56681;BME280;42558;52.388;13.390;2023-01-30T11:39:22;100026.52;;;4.94;92.87
56681;BME280;42558;52.388;13.390;2023-01-30T11:44:27;100019.72;;;4.93;92.31
56681;BME280;42558;52.388;13.390;2023-01-30T11:47:06;100011.63;;;4.97;92.01
56681;BME280;42558;52.388;13.390;2023-01-30T11:49:46;100007.92;;;5.02;92.33
56681;BME280;42558;52.388;13.390;2023-01-30T11:52:36;100006.00;;;5.09;90.95
56681;BME280;42558;52.388;13.390;2023-01-30T11:55:15;99996.48;;;5.20;89.97
56681;BME280;42558;52.388;13.390;2023-01-30T11:57:52;99988.05;;;5.33;89.97
56681;BME280;42558;52.388;13.390;2023-01-30T12:00:41;99976.63;;;5.53;89.21
56681;BME280;42558;52.388;13.390;2023-01-30T12:03:16;99977.45;;;5.67;88.40
56681;BME280;42558;52.388;13.390;2023-01-30T12:05:47;99970.11;;;5.84;87.73
56681;BME280;42558;52.388;13.390;2023-01-30T12:14:35;99958.61;;;5.66;84.16
56681;BME280;42558;52.388;13.390;2023-01-30T12:17:22;99953.02;;;5.66;84.23
56681;BME280;42558;52.388;13.390;2023-01-30T12:20:04;99955.39;;;5.54;85.08
56681;BME280;42558;52.388;13.390;2023-01-30T12:25:24;99959.20;;;5.61;85.32
56681;BME280;42558;52.388;13.390;2023-01-30T12:28:02;99959.89;;;5.53;84.47
56681;BME280;42558;52.388;13.390;2023-01-30T12:30:52;99959.68;;;5.67;82.29
56681;BME280;42558;52.388;13.390;2023-01-30T12:33:32;99957.20;;;5.74;80.77
56681;BME280;42558;52.388;13.390;2023-01-30T12:39:21;99954.52;;;5.80;81.49
56681;BME280;42558;52.388;13.390;2023-01-30T12:45:21;99946.36;;;5.91;84.13
56681;BME280;42558;52.388;13.390;2023-01-30T12:53:51;99932.09;;;6.20;78.04
56681;BME280;42558;52.388;13.390;2023-01-30T13:08:09;99928.79;;;6.31;76.70
56681;BME280;42558;52.388;13.390;2023-01-30T13:11:20;99931.48;;;6.25;76.27
56681;BME280;42558;52.388;13.390;2023-01-30T13:17:19;99935.38;;;5.83;78.35
56681;BME280;42558;52.388;13.390;2023-01-30T13:28:21;99935.23;;;5.32;81.29
56681;BME280;42558;52.388;13.390;2023-01-30T13:30:55;99930.86;;;5.32;81.29
56681;BME280;42558;52.388;13.390;2023-01-30T13:33:33;99929.96;;;5.30;81.90
56681;BME280;42558;52.388;13.390;2023-01-30T13:39:03;99926.59;;;5.36;81.31
56681;BME280;42558;52.388;13.390;2023-01-30T13:41:41;99915.83;;;5.37;82.69
56681;BME280;42558;52.388;13.390;2023-01-30T13:44:23;99906.23;;;5.37;83.29
56681;BME280;42558;52.388;13.390;2023-01-30T13:47:07;99907.25;;;5.36;83.64
56681;BME280;42558;52.388;13.390;2023-01-30T13:56:27;99921.20;;;4.82;92.00
56681;BME280;42558;52.388;13.390;2023-01-30T14:00:31;99919.21;;;4.63;94.02
56681;BME280;42558;52.388;13.390;2023-01-30T14:02:32;99910.21;;;4.51;96.18
56681;BME280;42558;52.388;13.390;2023-01-30T14:05:01;99906.12;;;4.47;96.85
56681;BME280;42558;52.388;13.390;2023-01-30T14:07:40;99922.23;;;4.50;95.36
56681;BME280;42558;52.388;13.390;2023-01-30T14:10:18;99911.75;;;4.35;96.58
56681;BME280;42558;52.388;13.390;2023-01-30T14:12:52;99925.83;;;4.21;99.45
56681;BME280;42558;52.388;13.390;2023-01-30T14:15:26;99932.65;;;4.02;100.00
56681;BME280;42558;52.388;13.390;2023-01-30T14:18:05;99936.36;;;3.66;100.00
56681;BME280;42558;52.388;13.390;2023-01-30T14:20:44;99954.80;;;3.42;100.00
56681;BME280;42558;52.388;13.390;2023-01-30T14:25:53;99981.30;;;2.99;100.00
56681;BME280;42558;52.388;13.390;2023-01-30T14:31:02;99995.59;;;2.79;100.00
56681;BME280;42558;52.388;13.390;2023-01-30T14:33:48;100015.95;;;2.55;100.00
56681;BME280;42558;52.388;13.390;2023-01-30T14:39:32;100029.52;;;2.20;100.00
56681;BME280;42558;52.388;13.390;2023-01-30T14:42:33;100061.10;;;2.11;100.00
56681;BME280;42558;52.388;13.390;2023-01-30T14:51:46;100055.86;;;2.15;100.00
56681;BME280;42558;52.388;13.390;2023-01-30T14:56:53;100065.58;;;2.30;100.00
56681;BME280;42558;52.388;13.390;2023-01-30T14:59:39;100069.59;;;2.45;100.00
56681;BME280;42558;52.388;13.390;2023-01-30T15:02:40;100074.60;;;2.55;100.00
56681;BME280;42558;52.388;13.390;2023-01-30T15:05:23;100074.86;;;2.57;100.00
56681;BME280;42558;52.388;13.390;2023-01-30T15:08:18;100076.96;;;2.58;100.00
56681;BME280;42558;52.388;13.390;2023-01-30T15:11:20;100077.98;;;2.62;100.00
56681;BME280;42558;52.388;13.390;2023-01-30T15:20:16;100092.95;;;2.59;100.00
56681;BME280;42558;52.388;13.390;2023-01-30T15:32:26;100077.30;;;2.58;100.00
56681;BME280;42558;52.388;13.390;2023-01-30T15:35:21;100080.52;;;2.61;100.00
56681;BME280;42558;52.388;13.390;2023-01-30T15:37:54;100080.96;;;2.63;100.00
56681;BME280;42558;52.388;13.390;2023-01-30T15:40:28;100081.79;;;2.62;100.00
56681;BME280;42558;52.388;13.390;2023-01-30T15:46:25;100094.46;;;2.57;100.00
56681;BME280;42558;52.388;13.390;2023-01-30T15:52:03;100096.83;;;2.76;100.00
56681;BME280;42558;52.388;13.390;2023-01-30T15:54:34;100111.15;;;2.88;100.00
56681;BME280;42558;52.388;13.390;2023-01-30T15:57:04;100107.20;;;3.05;100.00
56681;BME280;42558;52.388;13.390;2023-01-30T15:59:37;100102.54;;;3.06;100.00